sensor_id;sensor_type;location;lat;lon;timestamp;P1;durP1;ratioP1;P2;durP2;ratioP2
69956;SDS011;57283;54.816;9.482;2023-03-01T00:01:42;31.85;;;6.47;;
69956;SDS011;57283;54.816;9.482;2023-03-01T00:04:10;17.90;;;5.55;;
69956;SDS011;57283;54.816;9.482;2023-03-01T00:06:38;11.73;;;5.23;;
69956;SDS011;57283;54.816;9.482;2023-03-01T00:09:06;12.23;;;4.85;;
69956;SDS011;57283;54.816;9.482;2023-03-01T00:11:33;14.93;;;5.50;;
69956;SDS011;57283;54.816;9.482;2023-03-01T00:14:03;13.85;;;5.88;;
69956;SDS011;57283;54.816;9.482;2023-03-01T00:16:33;13.95;;;5.20;;
69956;SDS011;57283;54.816;9.482;2023-03-01T00:19:05;10.90;;;5.13;;
69956;SDS011;57283;54.816;9.482;2023-03-01T00:21:33;11.68;;;4.55;;
69956;SDS011;57283;54.816;9.482;2023-03-01T00:24:02;12.80;;;4.32;;
69956;SDS011;57283;54.816;9.482;2023-03-01T00:26:30;12.70;;;4.50;;
69956;SDS011;57283;54.816;9.482;2023-03-01T00:28:59;10.18;;;4.35;;
69956;SDS011;57283;54.816;9.482;2023-03-01T00:31:29;12.87;;;3.93;;
69956;SDS011;57283;54.816;9.482;2023-03-01T00:33:59;12.75;;;4.88;;
69956;SDS011;57283;54.816;9.482;2023-03-01T00:36:29;13.40;;;5.20;;
69956;SDS011;57283;54.816;9.482;2023-03-01T00:38:59;24.98;;;5.35;;
69956;SDS011;57283;54.816;9.482;2023-03-01T00:41:27;18.88;;;4.50;;
69956;SDS011;57283;54.816;9.482;2023-03-01T00:43:55;14.57;;;4.50;;
69956;SDS011;57283;54.816;9.482;2023-03-01T00:46:24;45.33;;;5.60;;
69956;SDS011;57283;54.816;9.482;2023-03-01T00:48:54;63.47;;;6.20;;
69956;SDS011;57283;54.816;9.482;2023-03-01T00:51:22;18.27;;;5.00;;
69956;SDS011;57283;54.816;9.482;2023-03-01T00:53:52;36.22;;;5.78;;
69956;SDS011;57283;54.816;9.482;2023-03-01T00:56:22;34.13;;;3.93;;
69956;SDS011;57283;54.816;9.482;2023-03-01T00:58:51;39.65;;;3.22;;
69956;SDS011;57283;54.816;9.482;2023-03-01T01:01:19;11.60;;;3.55;;
69956;SDS011;57283;54.816;9.482;2023-03-01T01:03:49;16.30;;;3.67;;
69956;SDS011;57283;54.816;9.482;2023-03-01T01:06:20;11.30;;;2.97;;
69956;SDS011;57283;54.816;9.482;2023-03-01T01:08:50;10.13;;;2.97;;
69956;SDS011;57283;54.816;9.482;2023-03-01T01:11:18;16.60;;;3.20;;
69956;SDS011;57283;54.816;9.482;2023-03-01T01:13:47;13.15;;;3.90;;
69956;SDS011;57283;54.816;9.482;2023-03-01T01:16:16;17.50;;;3.28;;
69956;SDS011;57283;54.816;9.482;2023-03-01T01:18:45;8.07;;;2.70;;
69956;SDS011;57283;54.816;9.482;2023-03-01T01:21:14;29.77;;;3.17;;
69956;SDS011;57283;54.816;9.482;2023-03-01T01:23:45;19.77;;;3.10;;
69956;SDS011;57283;54.816;9.482;2023-03-01T01:26:14;17.40;;;4.20;;
69956;SDS011;57283;54.816;9.482;2023-03-01T01:28:44;22.77;;;4.07;;
69956;SDS011;57283;54.816;9.482;2023-03-01T01:31:13;6.03;;;2.58;;
69956;SDS011;57283;54.816;9.482;2023-03-01T01:33:41;22.50;;;4.63;;
69956;SDS011;57283;54.816;9.482;2023-03-01T01:36:09;17.42;;;3.20;;
69956;SDS011;57283;54.816;9.482;2023-03-01T01:38:37;6.82;;;2.80;;
69956;SDS011;57283;54.816;9.482;2023-03-01T01:41:07;14.55;;;2.92;;
69956;SDS011;57283;54.816;9.482;2023-03-01T01:43:38;66.53;;;6.45;;
69956;SDS011;57283;54.816;9.482;2023-03-01T01:46:10;60.10;;;6.00;;
69956;SDS011;57283;54.816;9.482;2023-03-01T01:48:46;86.28;;;8.30;;
69956;SDS011;57283;54.816;9.482;2023-03-01T01:51:17;69.72;;;6.50;;
69956;SDS011;57283;54.816;9.482;2023-03-01T01:53:49;81.95;;;8.10;;
69956;SDS011;57283;54.816;9.482;2023-03-01T01:56:21;52.17;;;6.68;;
69956;SDS011;57283;54.816;9.482;2023-03-01T01:58:51;62.60;;;3.80;;
69956;SDS011;57283;54.816;9.482;2023-03-01T02:01:20;78.43;;;8.48;;
69956;SDS011;57283;54.816;9.482;2023-03-01T02:03:48;46.40;;;5.50;;
69956;SDS011;57283;54.816;9.482;2023-03-01T02:06:17;93.78;;;9.90;;
69956;SDS011;57283;54.816;9.482;2023-03-01T02:08:49;44.10;;;5.70;;
69956;SDS011;57283;54.816;9.482;2023-03-01T02:11:20;71.40;;;6.40;;
69956;SDS011;57283;54.816;9.482;2023-03-01T02:13:49;130.00;;;10.23;;
69956;SDS011;57283;54.816;9.482;2023-03-01T02:16:17;52.40;;;6.40;;
69956;SDS011;57283;54.816;9.482;2023-03-01T02:18:45;62.95;;;8.68;;
69956;SDS011;57283;54.816;9.482;2023-03-01T02:21:20;56.50;;;6.60;;
69956;SDS011;57283;54.816;9.482;2023-03-01T02:24:02;162.33;;;13.00;;
69956;SDS011;57283;54.816;9.482;2023-03-01T02:26:42;66.10;;;7.00;;
69956;SDS011;57283;54.816;9.482;2023-03-01T02:29:15;75.93;;;9.80;;
69956;SDS011;57283;54.816;9.482;2023-03-01T02:31:43;115.13;;;12.18;;
69956;SDS011;57283;54.816;9.482;2023-03-01T02:34:12;127.82;;;11.63;;
69956;SDS011;57283;54.816;9.482;2023-03-01T02:36:43;62.13;;;7.27;;
69956;SDS011;57283;54.816;9.482;2023-03-01T02:39:14;89.60;;;8.77;;
69956;SDS011;57283;54.816;9.482;2023-03-01T02:41:47;66.90;;;6.82;;
69956;SDS011;57283;54.816;9.482;2023-03-01T02:44:18;106.80;;;12.57;;
69956;SDS011;57283;54.816;9.482;2023-03-01T02:46:47;109.30;;;10.63;;
69956;SDS011;57283;54.816;9.482;2023-03-01T02:49:20;149.10;;;14.37;;
69956;SDS011;57283;54.816;9.482;2023-03-01T02:54:49;80.63;;;8.35;;
69956;SDS011;57283;54.816;9.482;2023-03-01T02:57:21;69.93;;;7.53;;
69956;SDS011;57283;54.816;9.482;2023-03-01T02:59:52;96.93;;;8.18;;
69956;SDS011;57283;54.816;9.482;2023-03-01T03:02:22;116.30;;;9.73;;
69956;SDS011;57283;54.816;9.482;2023-03-01T03:05:03;41.38;;;8.70;;
69956;SDS011;57283;54.816;9.482;2023-03-01T03:07:34;107.25;;;9.93;;
69956;SDS011;57283;54.816;9.482;2023-03-01T03:10:03;64.95;;;6.07;;
69956;SDS011;57283;54.816;9.482;2023-03-01T03:12:34;144.73;;;11.43;;
69956;SDS011;57283;54.816;9.482;2023-03-01T03:15:04;132.50;;;13.03;;
69956;SDS011;57283;54.816;9.482;2023-03-01T03:17:35;121.72;;;9.95;;
69956;SDS011;57283;54.816;9.482;2023-03-01T03:20:03;136.55;;;12.10;;
69956;SDS011;57283;54.816;9.482;2023-03-01T03:22:37;23.02;;;3.55;;
69956;SDS011;57283;54.816;9.482;2023-03-01T03:25:06;25.27;;;4.10;;
69956;SDS011;57283;54.816;9.482;2023-03-01T03:27:36;50.33;;;5.93;;
69956;SDS011;57283;54.816;9.482;2023-03-01T03:30:07;52.47;;;5.57;;
69956;SDS011;57283;54.816;9.482;2023-03-01T03:32:38;80.18;;;7.13;;
69956;SDS011;57283;54.816;9.482;2023-03-01T03:35:07;22.45;;;3.78;;
69956;SDS011;57283;54.816;9.482;2023-03-01T03:37:36;23.90;;;3.72;;
69956;SDS011;57283;54.816;9.482;2023-03-01T03:40:22;56.77;;;7.57;;
69956;SDS011;57283;54.816;9.482;2023-03-01T03:42:50;56.30;;;7.18;;
69956;SDS011;57283;54.816;9.482;2023-03-01T03:45:19;20.63;;;4.70;;
69956;SDS011;57283;54.816;9.482;2023-03-01T03:47:47;50.72;;;5.60;;
69956;SDS011;57283;54.816;9.482;2023-03-01T03:50:15;20.30;;;3.30;;
69956;SDS011;57283;54.816;9.482;2023-03-01T03:52:45;80.73;;;9.60;;
69956;SDS011;57283;54.816;9.482;2023-03-01T03:55:12;32.13;;;4.55;;
69956;SDS011;57283;54.816;9.482;2023-03-01T03:57:45;42.25;;;4.72;;
69956;SDS011;57283;54.816;9.482;2023-03-01T04:00:20;14.43;;;2.90;;
69956;SDS011;57283;54.816;9.482;2023-03-01T04:02:50;15.45;;;4.10;;
69956;SDS011;57283;54.816;9.482;2023-03-01T04:05:24;15.07;;;3.77;;
69956;SDS011;57283;54.816;9.482;2023-03-01T04:07:52;8.60;;;2.72;;
69956;SDS011;57283;54.816;9.482;2023-03-01T04:10:27;6.88;;;2.13;;
69956;SDS011;57283;54.816;9.482;2023-03-01T04:12:56;6.47;;;2.53;;
69956;SDS011;57283;54.816;9.482;2023-03-01T04:15:26;5.20;;;2.38;;
69956;SDS011;57283;54.816;9.482;2023-03-01T04:17:54;20.70;;;3.83;;
69956;SDS011;57283;54.816;9.482;2023-03-01T04:20:23;17.38;;;3.70;;
69956;SDS011;57283;54.816;9.482;2023-03-01T04:22:56;7.68;;;2.35;;
69956;SDS011;57283;54.816;9.482;2023-03-01T04:25:37;7.80;;;2.40;;
69956;SDS011;57283;54.816;9.482;2023-03-01T04:28:06;61.00;;;4.57;;
69956;SDS011;57283;54.816;9.482;2023-03-01T04:30:36;10.37;;;2.00;;
69956;SDS011;57283;54.816;9.482;2023-03-01T04:33:05;5.75;;;2.33;;
69956;SDS011;57283;54.816;9.482;2023-03-01T04:35:34;5.25;;;1.95;;
69956;SDS011;57283;54.816;9.482;2023-03-01T04:38:03;6.38;;;2.08;;
69956;SDS011;57283;54.816;9.482;2023-03-01T04:40:32;5.18;;;1.88;;
69956;SDS011;57283;54.816;9.482;2023-03-01T04:43:00;5.10;;;1.63;;
69956;SDS011;57283;54.816;9.482;2023-03-01T04:45:28;7.15;;;2.38;;
69956;SDS011;57283;54.816;9.482;2023-03-01T04:47:58;5.00;;;1.83;;
69956;SDS011;57283;54.816;9.482;2023-03-01T04:50:25;5.65;;;2.30;;
69956;SDS011;57283;54.816;9.482;2023-03-01T04:52:53;5.43;;;1.77;;
69956;SDS011;57283;54.816;9.482;2023-03-01T04:55:25;4.70;;;1.80;;
69956;SDS011;57283;54.816;9.482;2023-03-01T04:57:54;5.43;;;1.80;;
69956;SDS011;57283;54.816;9.482;2023-03-01T05:03:13;8.82;;;1.92;;
69956;SDS011;57283;54.816;9.482;2023-03-01T05:05:44;10.20;;;2.05;;
69956;SDS011;57283;54.816;9.482;2023-03-01T05:08:13;5.67;;;2.23;;
69956;SDS011;57283;54.816;9.482;2023-03-01T05:10:45;8.93;;;2.13;;
69956;SDS011;57283;54.816;9.482;2023-03-01T05:13:14;11.27;;;2.10;;
69956;SDS011;57283;54.816;9.482;2023-03-01T05:15:47;6.70;;;2.03;;
69956;SDS011;57283;54.816;9.482;2023-03-01T05:18:17;6.45;;;1.80;;
69956;SDS011;57283;54.816;9.482;2023-03-01T05:20:44;28.57;;;3.33;;
69956;SDS011;57283;54.816;9.482;2023-03-01T05:23:13;6.00;;;1.80;;
69956;SDS011;57283;54.816;9.482;2023-03-01T05:25:41;15.98;;;2.90;;
69956;SDS011;57283;54.816;9.482;2023-03-01T05:28:10;10.32;;;2.30;;
69956;SDS011;57283;54.816;9.482;2023-03-01T05:30:39;23.20;;;2.28;;
69956;SDS011;57283;54.816;9.482;2023-03-01T05:33:07;21.13;;;2.90;;
69956;SDS011;57283;54.816;9.482;2023-03-01T05:35:41;21.08;;;3.03;;
69956;SDS011;57283;54.816;9.482;2023-03-01T05:38:12;10.40;;;1.70;;
69956;SDS011;57283;54.816;9.482;2023-03-01T05:40:40;6.07;;;1.85;;
69956;SDS011;57283;54.816;9.482;2023-03-01T05:43:09;14.18;;;1.98;;
69956;SDS011;57283;54.816;9.482;2023-03-01T05:45:37;5.03;;;1.53;;
69956;SDS011;57283;54.816;9.482;2023-03-01T05:48:08;20.45;;;2.25;;
69956;SDS011;57283;54.816;9.482;2023-03-01T05:50:38;23.58;;;2.20;;
69956;SDS011;57283;54.816;9.482;2023-03-01T05:53:09;13.75;;;2.08;;
69956;SDS011;57283;54.816;9.482;2023-03-01T05:55:38;9.77;;;2.03;;
69956;SDS011;57283;54.816;9.482;2023-03-01T05:58:07;7.33;;;1.63;;
69956;SDS011;57283;54.816;9.482;2023-03-01T06:00:37;5.88;;;1.65;;
69956;SDS011;57283;54.816;9.482;2023-03-01T06:03:05;29.45;;;3.45;;
69956;SDS011;57283;54.816;9.482;2023-03-01T06:05:33;35.00;;;3.35;;
69956;SDS011;57283;54.816;9.482;2023-03-01T06:08:03;9.73;;;2.25;;
69956;SDS011;57283;54.816;9.482;2023-03-01T06:10:32;19.87;;;2.07;;
69956;SDS011;57283;54.816;9.482;2023-03-01T06:13:00;4.25;;;1.42;;
69956;SDS011;57283;54.816;9.482;2023-03-01T06:15:28;3.72;;;1.50;;
69956;SDS011;57283;54.816;9.482;2023-03-01T06:17:56;4.18;;;1.20;;
69956;SDS011;57283;54.816;9.482;2023-03-01T06:20:26;3.63;;;1.13;;
69956;SDS011;57283;54.816;9.482;2023-03-01T06:22:55;4.30;;;1.33;;
69956;SDS011;57283;54.816;9.482;2023-03-01T06:25:24;23.70;;;2.33;;
69956;SDS011;57283;54.816;9.482;2023-03-01T06:27:55;24.23;;;2.40;;
69956;SDS011;57283;54.816;9.482;2023-03-01T06:30:24;18.73;;;2.33;;
69956;SDS011;57283;54.816;9.482;2023-03-01T06:32:52;7.65;;;1.17;;
69956;SDS011;57283;54.816;9.482;2023-03-01T06:35:27;6.27;;;1.30;;
69956;SDS011;57283;54.816;9.482;2023-03-01T06:37:57;15.52;;;2.00;;
69956;SDS011;57283;54.816;9.482;2023-03-01T06:40:25;3.70;;;1.42;;
69956;SDS011;57283;54.816;9.482;2023-03-01T06:42:55;6.07;;;1.10;;
69956;SDS011;57283;54.816;9.482;2023-03-01T06:45:23;9.27;;;1.52;;
69956;SDS011;57283;54.816;9.482;2023-03-01T06:47:51;4.00;;;1.50;;
69956;SDS011;57283;54.816;9.482;2023-03-01T06:50:19;4.60;;;1.50;;
69956;SDS011;57283;54.816;9.482;2023-03-01T06:52:47;10.02;;;1.58;;
69956;SDS011;57283;54.816;9.482;2023-03-01T06:55:15;10.85;;;2.63;;
69956;SDS011;57283;54.816;9.482;2023-03-01T06:57:43;7.80;;;1.45;;
69956;SDS011;57283;54.816;9.482;2023-03-01T07:00:13;4.77;;;1.50;;
69956;SDS011;57283;54.816;9.482;2023-03-01T07:02:41;15.25;;;2.08;;
69956;SDS011;57283;54.816;9.482;2023-03-01T07:05:09;4.85;;;1.60;;
69956;SDS011;57283;54.816;9.482;2023-03-01T07:07:37;4.93;;;1.17;;
69956;SDS011;57283;54.816;9.482;2023-03-01T07:10:05;3.65;;;1.20;;
69956;SDS011;57283;54.816;9.482;2023-03-01T07:12:34;4.70;;;1.13;;
69956;SDS011;57283;54.816;9.482;2023-03-01T07:15:02;3.35;;;1.20;;
69956;SDS011;57283;54.816;9.482;2023-03-01T07:17:33;3.80;;;1.20;;
69956;SDS011;57283;54.816;9.482;2023-03-01T07:20:00;13.35;;;2.05;;
69956;SDS011;57283;54.816;9.482;2023-03-01T07:22:28;4.13;;;1.50;;
69956;SDS011;57283;54.816;9.482;2023-03-01T07:24:56;8.13;;;1.30;;
69956;SDS011;57283;54.816;9.482;2023-03-01T07:27:24;3.30;;;0.98;;
69956;SDS011;57283;54.816;9.482;2023-03-01T07:29:51;14.02;;;1.67;;
69956;SDS011;57283;54.816;9.482;2023-03-01T07:32:19;10.00;;;2.30;;
69956;SDS011;57283;54.816;9.482;2023-03-01T07:34:49;7.82;;;1.60;;
69956;SDS011;57283;54.816;9.482;2023-03-01T07:37:18;15.97;;;3.43;;
69956;SDS011;57283;54.816;9.482;2023-03-01T07:39:45;6.72;;;1.33;;
69956;SDS011;57283;54.816;9.482;2023-03-01T07:42:13;7.60;;;1.50;;
69956;SDS011;57283;54.816;9.482;2023-03-01T07:44:41;6.63;;;1.48;;
69956;SDS011;57283;54.816;9.482;2023-03-01T07:47:09;18.67;;;1.85;;
69956;SDS011;57283;54.816;9.482;2023-03-01T07:49:37;16.33;;;1.90;;
69956;SDS011;57283;54.816;9.482;2023-03-01T07:52:06;3.78;;;1.13;;
69956;SDS011;57283;54.816;9.482;2023-03-01T07:54:34;8.75;;;1.65;;
69956;SDS011;57283;54.816;9.482;2023-03-01T07:57:02;4.57;;;1.73;;
69956;SDS011;57283;54.816;9.482;2023-03-01T07:59:30;5.68;;;1.48;;
69956;SDS011;57283;54.816;9.482;2023-03-01T08:01:58;6.77;;;1.70;;
69956;SDS011;57283;54.816;9.482;2023-03-01T08:04:26;4.35;;;1.15;;
69956;SDS011;57283;54.816;9.482;2023-03-01T08:06:54;6.78;;;1.45;;
69956;SDS011;57283;54.816;9.482;2023-03-01T08:09:24;5.28;;;1.40;;
69956;SDS011;57283;54.816;9.482;2023-03-01T08:12:23;3.67;;;1.30;;
69956;SDS011;57283;54.816;9.482;2023-03-01T08:14:42;4.57;;;1.30;;
69956;SDS011;57283;54.816;9.482;2023-03-01T08:17:10;10.32;;;2.92;;
69956;SDS011;57283;54.816;9.482;2023-03-01T08:19:43;4.22;;;1.25;;
69956;SDS011;57283;54.816;9.482;2023-03-01T08:22:11;5.60;;;1.55;;
69956;SDS011;57283;54.816;9.482;2023-03-01T08:24:40;5.00;;;2.00;;
69956;SDS011;57283;54.816;9.482;2023-03-01T08:27:08;7.37;;;1.40;;
69956;SDS011;57283;54.816;9.482;2023-03-01T08:29:36;13.57;;;1.73;;
69956;SDS011;57283;54.816;9.482;2023-03-01T08:32:04;8.10;;;1.80;;
69956;SDS011;57283;54.816;9.482;2023-03-01T08:34:32;4.97;;;1.80;;
69956;SDS011;57283;54.816;9.482;2023-03-01T08:37:01;8.25;;;1.63;;
69956;SDS011;57283;54.816;9.482;2023-03-01T08:39:29;6.50;;;2.33;;
69956;SDS011;57283;54.816;9.482;2023-03-01T08:41:59;5.30;;;1.98;;
69956;SDS011;57283;54.816;9.482;2023-03-01T08:44:26;4.78;;;1.60;;
69956;SDS011;57283;54.816;9.482;2023-03-01T08:46:54;25.20;;;3.00;;
69956;SDS011;57283;54.816;9.482;2023-03-01T08:49:23;10.35;;;2.25;;
69956;SDS011;57283;54.816;9.482;2023-03-01T08:51:51;6.10;;;1.80;;
69956;SDS011;57283;54.816;9.482;2023-03-01T08:54:20;7.93;;;2.45;;
69956;SDS011;57283;54.816;9.482;2023-03-01T08:56:48;13.57;;;2.63;;
69956;SDS011;57283;54.816;9.482;2023-03-01T08:59:18;8.13;;;2.80;;
69956;SDS011;57283;54.816;9.482;2023-03-01T09:01:46;6.95;;;2.70;;
69956;SDS011;57283;54.816;9.482;2023-03-01T09:04:14;8.23;;;3.13;;
69956;SDS011;57283;54.816;9.482;2023-03-01T09:06:42;13.23;;;2.83;;
69956;SDS011;57283;54.816;9.482;2023-03-01T09:09:12;6.82;;;3.05;;
69956;SDS011;57283;54.816;9.482;2023-03-01T09:11:42;8.85;;;3.38;;
69956;SDS011;57283;54.816;9.482;2023-03-01T09:14:12;10.60;;;3.75;;
69956;SDS011;57283;54.816;9.482;2023-03-01T09:16:41;8.07;;;3.47;;
69956;SDS011;57283;54.816;9.482;2023-03-01T09:19:09;9.50;;;4.00;;
69956;SDS011;57283;54.816;9.482;2023-03-01T09:21:37;10.25;;;3.83;;
69956;SDS011;57283;54.816;9.482;2023-03-01T09:24:06;8.68;;;3.53;;
69956;SDS011;57283;54.816;9.482;2023-03-01T09:26:40;9.32;;;3.13;;
69956;SDS011;57283;54.816;9.482;2023-03-01T09:29:08;10.50;;;4.37;;
69956;SDS011;57283;54.816;9.482;2023-03-01T09:31:36;8.52;;;3.90;;
69956;SDS011;57283;54.816;9.482;2023-03-01T09:34:07;9.90;;;3.80;;
69956;SDS011;57283;54.816;9.482;2023-03-01T09:36:35;16.85;;;4.95;;
69956;SDS011;57283;54.816;9.482;2023-03-01T09:39:03;12.80;;;3.72;;
69956;SDS011;57283;54.816;9.482;2023-03-01T09:41:45;8.37;;;3.63;;
69956;SDS011;57283;54.816;9.482;2023-03-01T09:44:21;10.85;;;3.75;;
69956;SDS011;57283;54.816;9.482;2023-03-01T09:46:56;8.10;;;3.38;;
69956;SDS011;57283;54.816;9.482;2023-03-01T09:49:27;8.05;;;3.55;;
69956;SDS011;57283;54.816;9.482;2023-03-01T09:51:58;8.43;;;3.28;;
69956;SDS011;57283;54.816;9.482;2023-03-01T09:54:31;7.97;;;3.50;;
69956;SDS011;57283;54.816;9.482;2023-03-01T09:57:05;8.73;;;3.35;;
69956;SDS011;57283;54.816;9.482;2023-03-01T09:59:44;11.05;;;3.38;;
69956;SDS011;57283;54.816;9.482;2023-03-01T10:02:24;13.07;;;3.88;;
69956;SDS011;57283;54.816;9.482;2023-03-01T10:05:02;9.18;;;3.47;;
69956;SDS011;57283;54.816;9.482;2023-03-01T10:07:39;9.10;;;3.77;;
69956;SDS011;57283;54.816;9.482;2023-03-01T10:10:16;7.65;;;3.00;;
69956;SDS011;57283;54.816;9.482;2023-03-01T10:12:59;7.93;;;2.95;;
69956;SDS011;57283;54.816;9.482;2023-03-01T10:15:32;9.23;;;3.55;;
69956;SDS011;57283;54.816;9.482;2023-03-01T10:18:06;7.25;;;3.65;;
69956;SDS011;57283;54.816;9.482;2023-03-01T10:20:43;8.87;;;3.60;;
69956;SDS011;57283;54.816;9.482;2023-03-01T10:23:18;8.43;;;3.75;;
69956;SDS011;57283;54.816;9.482;2023-03-01T10:25:48;10.45;;;3.97;;
69956;SDS011;57283;54.816;9.482;2023-03-01T10:28:25;8.60;;;3.42;;
69956;SDS011;57283;54.816;9.482;2023-03-01T10:30:56;8.02;;;3.70;;
69956;SDS011;57283;54.816;9.482;2023-03-01T10:33:26;6.90;;;3.10;;
69956;SDS011;57283;54.816;9.482;2023-03-01T10:35:57;8.13;;;3.72;;
69956;SDS011;57283;54.816;9.482;2023-03-01T10:38:25;8.20;;;3.70;;
69956;SDS011;57283;54.816;9.482;2023-03-01T10:40:56;8.38;;;3.30;;
69956;SDS011;57283;54.816;9.482;2023-03-01T10:43:30;8.02;;;3.50;;
69956;SDS011;57283;54.816;9.482;2023-03-01T10:46:16;8.47;;;3.77;;
69956;SDS011;57283;54.816;9.482;2023-03-01T10:49:00;8.38;;;3.78;;
69956;SDS011;57283;54.816;9.482;2023-03-01T10:51:36;8.27;;;3.60;;
69956;SDS011;57283;54.816;9.482;2023-03-01T10:54:14;8.60;;;3.83;;
69956;SDS011;57283;54.816;9.482;2023-03-01T10:56:45;8.50;;;3.35;;
69956;SDS011;57283;54.816;9.482;2023-03-01T10:59:26;7.30;;;3.20;;
69956;SDS011;57283;54.816;9.482;2023-03-01T11:02:03;8.25;;;3.85;;
69956;SDS011;57283;54.816;9.482;2023-03-01T11:04:57;8.50;;;3.50;;
69956;SDS011;57283;54.816;9.482;2023-03-01T11:07:28;9.13;;;3.63;;
69956;SDS011;57283;54.816;9.482;2023-03-01T11:09:56;6.78;;;3.35;;
69956;SDS011;57283;54.816;9.482;2023-03-01T11:12:24;8.90;;;3.47;;
69956;SDS011;57283;54.816;9.482;2023-03-01T11:14:55;9.07;;;3.92;;
69956;SDS011;57283;54.816;9.482;2023-03-01T11:17:25;8.27;;;3.58;;
69956;SDS011;57283;54.816;9.482;2023-03-01T11:20:02;9.52;;;3.70;;
69956;SDS011;57283;54.816;9.482;2023-03-01T11:22:45;8.75;;;3.80;;
69956;SDS011;57283;54.816;9.482;2023-03-01T11:25:17;8.13;;;3.67;;
69956;SDS011;57283;54.816;9.482;2023-03-01T11:27:46;9.88;;;3.40;;
69956;SDS011;57283;54.816;9.482;2023-03-01T11:30:15;9.73;;;3.60;;
69956;SDS011;57283;54.816;9.482;2023-03-01T11:32:49;8.57;;;3.60;;
69956;SDS011;57283;54.816;9.482;2023-03-01T11:35:25;10.07;;;4.55;;
69956;SDS011;57283;54.816;9.482;2023-03-01T11:37:58;8.50;;;3.73;;
69956;SDS011;57283;54.816;9.482;2023-03-01T11:40:32;7.97;;;3.53;;
69956;SDS011;57283;54.816;9.482;2023-03-01T11:43:04;6.85;;;3.00;;
69956;SDS011;57283;54.816;9.482;2023-03-01T11:45:43;8.18;;;3.35;;
69956;SDS011;57283;54.816;9.482;2023-03-01T11:48:30;7.20;;;3.00;;
69956;SDS011;57283;54.816;9.482;2023-03-01T11:51:17;8.23;;;3.53;;
69956;SDS011;57283;54.816;9.482;2023-03-01T11:54:04;7.70;;;3.30;;
69956;SDS011;57283;54.816;9.482;2023-03-01T11:56:41;8.43;;;3.95;;
69956;SDS011;57283;54.816;9.482;2023-03-01T12:02:16;6.43;;;2.72;;
69956;SDS011;57283;54.816;9.482;2023-03-01T12:05:03;7.80;;;2.97;;
69956;SDS011;57283;54.816;9.482;2023-03-01T12:07:46;7.15;;;3.30;;
69956;SDS011;57283;54.816;9.482;2023-03-01T12:10:23;6.22;;;2.75;;
69956;SDS011;57283;54.816;9.482;2023-03-01T12:15:58;7.45;;;2.97;;
69956;SDS011;57283;54.816;9.482;2023-03-01T12:18:55;7.80;;;3.10;;
69956;SDS011;57283;54.816;9.482;2023-03-01T12:21:40;7.10;;;2.80;;
69956;SDS011;57283;54.816;9.482;2023-03-01T12:24:21;7.22;;;3.17;;
69956;SDS011;57283;54.816;9.482;2023-03-01T12:27:06;7.97;;;3.30;;
69956;SDS011;57283;54.816;9.482;2023-03-01T12:29:47;7.85;;;3.22;;
69956;SDS011;57283;54.816;9.482;2023-03-01T12:32:32;11.53;;;5.00;;
69956;SDS011;57283;54.816;9.482;2023-03-01T12:38:26;10.10;;;4.43;;
69956;SDS011;57283;54.816;9.482;2023-03-01T12:41:10;15.82;;;6.47;;
69956;SDS011;57283;54.816;9.482;2023-03-01T12:43:54;15.55;;;7.28;;
69956;SDS011;57283;54.816;9.482;2023-03-01T12:46:33;15.63;;;6.20;;
69956;SDS011;57283;54.816;9.482;2023-03-01T12:49:15;15.50;;;6.22;;
69956;SDS011;57283;54.816;9.482;2023-03-01T12:51:49;14.82;;;6.47;;
69956;SDS011;57283;54.816;9.482;2023-03-01T12:54:26;12.55;;;5.82;;
69956;SDS011;57283;54.816;9.482;2023-03-01T12:56:55;12.82;;;4.63;;
69956;SDS011;57283;54.816;9.482;2023-03-01T12:59:30;13.23;;;5.00;;
69956;SDS011;57283;54.816;9.482;2023-03-01T13:02:09;10.88;;;4.90;;
69956;SDS011;57283;54.816;9.482;2023-03-01T13:04:48;10.13;;;4.72;;
69956;SDS011;57283;54.816;9.482;2023-03-01T13:07:28;11.00;;;4.85;;
69956;SDS011;57283;54.816;9.482;2023-03-01T13:10:02;9.18;;;4.05;;
69956;SDS011;57283;54.816;9.482;2023-03-01T13:12:46;8.87;;;3.70;;
69956;SDS011;57283;54.816;9.482;2023-03-01T13:15:26;9.20;;;3.70;;
69956;SDS011;57283;54.816;9.482;2023-03-01T13:17:55;7.10;;;3.38;;
69956;SDS011;57283;54.816;9.482;2023-03-01T13:20:27;8.43;;;4.00;;
69956;SDS011;57283;54.816;9.482;2023-03-01T13:23:00;8.95;;;3.88;;
69956;SDS011;57283;54.816;9.482;2023-03-01T13:25:30;10.13;;;3.80;;
69956;SDS011;57283;54.816;9.482;2023-03-01T13:31:09;8.55;;;3.72;;
69956;SDS011;57283;54.816;9.482;2023-03-01T13:39:27;10.63;;;4.53;;
69956;SDS011;57283;54.816;9.482;2023-03-01T13:41:58;9.73;;;5.22;;
69956;SDS011;57283;54.816;9.482;2023-03-01T13:44:29;14.07;;;6.25;;
69956;SDS011;57283;54.816;9.482;2023-03-01T13:47:03;11.95;;;6.03;;
69956;SDS011;57283;54.816;9.482;2023-03-01T13:49:46;13.27;;;5.30;;
69956;SDS011;57283;54.816;9.482;2023-03-01T13:52:24;11.90;;;5.30;;
69956;SDS011;57283;54.816;9.482;2023-03-01T13:55:14;10.93;;;5.45;;
69956;SDS011;57283;54.816;9.482;2023-03-01T13:57:46;11.57;;;5.65;;
69956;SDS011;57283;54.816;9.482;2023-03-01T14:00:27;11.88;;;6.20;;
69956;SDS011;57283;54.816;9.482;2023-03-01T14:03:08;11.13;;;4.95;;
69956;SDS011;57283;54.816;9.482;2023-03-01T14:05:38;9.87;;;4.53;;
69956;SDS011;57283;54.816;9.482;2023-03-01T14:08:18;10.13;;;4.40;;
69956;SDS011;57283;54.816;9.482;2023-03-01T14:10:53;12.48;;;4.80;;
69956;SDS011;57283;54.816;9.482;2023-03-01T14:13:36;9.75;;;4.60;;
69956;SDS011;57283;54.816;9.482;2023-03-01T14:16:18;11.00;;;4.25;;
69956;SDS011;57283;54.816;9.482;2023-03-01T14:18:57;11.20;;;5.17;;
69956;SDS011;57283;54.816;9.482;2023-03-01T14:21:39;10.45;;;4.97;;
69956;SDS011;57283;54.816;9.482;2023-03-01T14:24:14;12.27;;;5.15;;
69956;SDS011;57283;54.816;9.482;2023-03-01T14:26:44;10.32;;;4.80;;
69956;SDS011;57283;54.816;9.482;2023-03-01T14:29:25;11.82;;;4.95;;
69956;SDS011;57283;54.816;9.482;2023-03-01T14:31:54;12.60;;;4.97;;
69956;SDS011;57283;54.816;9.482;2023-03-01T14:34:24;10.48;;;4.78;;
69956;SDS011;57283;54.816;9.482;2023-03-01T14:36:52;13.07;;;5.07;;
69956;SDS011;57283;54.816;9.482;2023-03-01T14:39:23;9.20;;;4.47;;
69956;SDS011;57283;54.816;9.482;2023-03-01T14:41:52;11.55;;;5.05;;
69956;SDS011;57283;54.816;9.482;2023-03-01T14:44:23;10.97;;;4.23;;
69956;SDS011;57283;54.816;9.482;2023-03-01T14:46:52;9.70;;;4.30;;
69956;SDS011;57283;54.816;9.482;2023-03-01T14:49:25;8.88;;;4.22;;
69956;SDS011;57283;54.816;9.482;2023-03-01T14:51:57;12.82;;;4.88;;
69956;SDS011;57283;54.816;9.482;2023-03-01T14:54:29;9.70;;;4.80;;
69956;SDS011;57283;54.816;9.482;2023-03-01T14:57:03;10.40;;;4.27;;
69956;SDS011;57283;54.816;9.482;2023-03-01T14:59:32;8.77;;;3.83;;
69956;SDS011;57283;54.816;9.482;2023-03-01T15:02:01;8.07;;;3.50;;
69956;SDS011;57283;54.816;9.482;2023-03-01T15:04:31;8.73;;;3.72;;
69956;SDS011;57283;54.816;9.482;2023-03-01T15:07:00;8.25;;;3.88;;
69956;SDS011;57283;54.816;9.482;2023-03-01T15:09:31;8.63;;;3.73;;
69956;SDS011;57283;54.816;9.482;2023-03-01T15:17:50;10.35;;;3.97;;
69956;SDS011;57283;54.816;9.482;2023-03-01T15:20:24;9.80;;;4.05;;
69956;SDS011;57283;54.816;9.482;2023-03-01T15:22:55;11.10;;;3.97;;
69956;SDS011;57283;54.816;9.482;2023-03-01T15:25:24;12.88;;;3.90;;
69956;SDS011;57283;54.816;9.482;2023-03-01T15:27:54;11.45;;;4.32;;
69956;SDS011;57283;54.816;9.482;2023-03-01T15:30:25;11.93;;;4.53;;
69956;SDS011;57283;54.816;9.482;2023-03-01T15:35:56;10.13;;;3.83;;
69956;SDS011;57283;54.816;9.482;2023-03-01T15:38:35;9.48;;;4.30;;
69956;SDS011;57283;54.816;9.482;2023-03-01T15:41:25;10.45;;;4.75;;